sensor_id;sensor_type;location;lat;lon;timestamp;temperature;humidity
4828;DHT22;2428;48.732;9.148;2023-03-14T00:02:02;9.10;99.90
4828;DHT22;2428;48.732;9.148;2023-03-14T00:04:28;9.10;99.90
4828;DHT22;2428;48.732;9.148;2023-03-14T00:06:53;9.10;99.90
4828;DHT22;2428;48.732;9.148;2023-03-14T00:09:19;9.10;99.90
4828;DHT22;2428;48.732;9.148;2023-03-14T00:11:44;9.10;99.90
4828;DHT22;2428;48.732;9.148;2023-03-14T00:14:11;9.00;99.90
4828;DHT22;2428;48.732;9.148;2023-03-14T00:16:37;9.00;99.90
4828;DHT22;2428;48.732;9.148;2023-03-14T00:19:02;9.00;99.90
4828;DHT22;2428;48.732;9.148;2023-03-14T00:21:28;9.00;99.90
4828;DHT22;2428;48.732;9.148;2023-03-14T00:23:54;9.10;99.90
4828;DHT22;2428;48.732;9.148;2023-03-14T00:26:20;9.10;99.90
4828;DHT22;2428;48.732;9.148;2023-03-14T00:28:47;9.10;99.90
4828;DHT22;2428;48.732;9.148;2023-03-14T00:31:15;9.00;99.90
4828;DHT22;2428;48.732;9.148;2023-03-14T00:33:41;9.00;99.90
4828;DHT22;2428;48.732;9.148;2023-03-14T00:36:13;9.00;99.90
4828;DHT22;2428;48.732;9.148;2023-03-14T00:38:40;9.10;99.90
4828;DHT22;2428;48.732;9.148;2023-03-14T00:41:07;9.10;99.90
4828;DHT22;2428;48.732;9.148;2023-03-14T00:43:33;9.10;99.90
4828;DHT22;2428;48.732;9.148;2023-03-14T00:45:59;9.10;99.90
4828;DHT22;2428;48.732;9.148;2023-03-14T00:48:25;9.10;99.90
4828;DHT22;2428;48.732;9.148;2023-03-14T00:50:51;9.10;99.90
4828;DHT22;2428;48.732;9.148;2023-03-14T00:53:17;9.10;99.90
4828;DHT22;2428;48.732;9.148;2023-03-14T00:55:44;9.20;99.90
4828;DHT22;2428;48.732;9.148;2023-03-14T00:58:11;9.20;99.90
4828;DHT22;2428;48.732;9.148;2023-03-14T01:00:36;9.20;99.90
4828;DHT22;2428;48.732;9.148;2023-03-14T01:03:03;9.20;99.90
4828;DHT22;2428;48.732;9.148;2023-03-14T01:05:29;9.20;99.90
4828;DHT22;2428;48.732;9.148;2023-03-14T01:07:55;9.10;99.90
4828;DHT22;2428;48.732;9.148;2023-03-14T01:10:21;9.20;99.90
4828;DHT22;2428;48.732;9.148;2023-03-14T01:12:47;9.20;99.90
4828;DHT22;2428;48.732;9.148;2023-03-14T01:15:12;9.20;99.90
4828;DHT22;2428;48.732;9.148;2023-03-14T01:17:38;9.20;99.90
4828;DHT22;2428;48.732;9.148;2023-03-14T01:20:05;9.20;99.90
4828;DHT22;2428;48.732;9.148;2023-03-14T01:22:35;9.20;99.90
4828;DHT22;2428;48.732;9.148;2023-03-14T01:25:01;9.20;99.90
4828;DHT22;2428;48.732;9.148;2023-03-14T01:27:26;9.20;99.90
4828;DHT22;2428;48.732;9.148;2023-03-14T01:29:52;9.30;99.90
4828;DHT22;2428;48.732;9.148;2023-03-14T01:32:17;9.30;99.90
4828;DHT22;2428;48.732;9.148;2023-03-14T01:34:43;9.30;99.90
4828;DHT22;2428;48.732;9.148;2023-03-14T01:37:08;9.30;99.90
4828;DHT22;2428;48.732;9.148;2023-03-14T01:39:34;9.30;99.90
4828;DHT22;2428;48.732;9.148;2023-03-14T01:42:00;9.30;99.90
4828;DHT22;2428;48.732;9.148;2023-03-14T01:44:26;9.30;99.90
4828;DHT22;2428;48.732;9.148;2023-03-14T01:46:52;9.30;99.90
4828;DHT22;2428;48.732;9.148;2023-03-14T01:49:29;9.30;99.90
4828;DHT22;2428;48.732;9.148;2023-03-14T01:52:10;9.30;99.90
4828;DHT22;2428;48.732;9.148;2023-03-14T01:54:42;9.30;99.90
4828;DHT22;2428;48.732;9.148;2023-03-14T02:00:16;9.20;99.90
4828;DHT22;2428;48.732;9.148;2023-03-14T02:02:45;9.20;99.90
4828;DHT22;2428;48.732;9.148;2023-03-14T02:05:12;9.20;99.90
4828;DHT22;2428;48.732;9.148;2023-03-14T02:07:51;9.20;99.90
4828;DHT22;2428;48.732;9.148;2023-03-14T02:10:23;9.20;99.90
4828;DHT22;2428;48.732;9.148;2023-03-14T02:12:50;9.10;99.90
4828;DHT22;2428;48.732;9.148;2023-03-14T02:15:18;9.10;99.90
4828;DHT22;2428;48.732;9.148;2023-03-14T02:17:45;9.10;99.90
4828;DHT22;2428;48.732;9.148;2023-03-14T02:22:44;9.10;99.90
4828;DHT22;2428;48.732;9.148;2023-03-14T02:28:05;9.10;99.90
4828;DHT22;2428;48.732;9.148;2023-03-14T02:30:32;9.00;99.90
4828;DHT22;2428;48.732;9.148;2023-03-14T02:33:10;9.00;99.90
4828;DHT22;2428;48.732;9.148;2023-03-14T02:35:41;9.00;99.90
4828;DHT22;2428;48.732;9.148;2023-03-14T02:38:34;9.00;99.90
4828;DHT22;2428;48.732;9.148;2023-03-14T02:41:01;9.00;99.90
4828;DHT22;2428;48.732;9.148;2023-03-14T02:43:27;9.00;99.90
4828;DHT22;2428;48.732;9.148;2023-03-14T02:45:53;9.00;99.90
4828;DHT22;2428;48.732;9.148;2023-03-14T02:50:48;9.00;99.90
4828;DHT22;2428;48.732;9.148;2023-03-14T02:53:19;9.00;99.90
4828;DHT22;2428;48.732;9.148;2023-03-14T02:55:49;9.00;99.90
4828;DHT22;2428;48.732;9.148;2023-03-14T02:58:15;9.00;99.90
4828;DHT22;2428;48.732;9.148;2023-03-14T03:00:41;9.00;99.90
4828;DHT22;2428;48.732;9.148;2023-03-14T03:03:06;9.00;99.90
4828;DHT22;2428;48.732;9.148;2023-03-14T03:05:32;9.00;99.90
4828;DHT22;2428;48.732;9.148;2023-03-14T03:07:58;9.00;99.90
4828;DHT22;2428;48.732;9.148;2023-03-14T03:10:24;9.00;99.90
4828;DHT22;2428;48.732;9.148;2023-03-14T03:12:50;9.10;99.90
4828;DHT22;2428;48.732;9.148;2023-03-14T03:15:17;9.00;99.90
4828;DHT22;2428;48.732;9.148;2023-03-14T03:17:43;9.00;99.90
4828;DHT22;2428;48.732;9.148;2023-03-14T03:20:09;9.00;99.90
4828;DHT22;2428;48.732;9.148;2023-03-14T03:22:36;8.90;99.90
4828;DHT22;2428;48.732;9.148;2023-03-14T03:25:03;9.00;99.90
4828;DHT22;2428;48.732;9.148;2023-03-14T03:27:33;8.90;99.90
4828;DHT22;2428;48.732;9.148;2023-03-14T03:30:00;8.90;99.90
4828;DHT22;2428;48.732;9.148;2023-03-14T03:32:26;8.90;99.90
4828;DHT22;2428;48.732;9.148;2023-03-14T03:34:52;8.90;99.90
4828;DHT22;2428;48.732;9.148;2023-03-14T03:37:18;8.90;99.90
4828;DHT22;2428;48.732;9.148;2023-03-14T03:39:44;8.90;99.90
4828;DHT22;2428;48.732;9.148;2023-03-14T03:42:09;8.90;99.90
4828;DHT22;2428;48.732;9.148;2023-03-14T03:44:35;8.90;99.90
4828;DHT22;2428;48.732;9.148;2023-03-14T03:47:01;8.90;99.90
4828;DHT22;2428;48.732;9.148;2023-03-14T03:49:31;8.80;99.90
4828;DHT22;2428;48.732;9.148;2023-03-14T03:51:56;8.80;99.90
4828;DHT22;2428;48.732;9.148;2023-03-14T03:54:22;8.80;99.90
4828;DHT22;2428;48.732;9.148;2023-03-14T03:56:47;8.80;99.90
4828;DHT22;2428;48.732;9.148;2023-03-14T03:59:13;8.80;99.90
4828;DHT22;2428;48.732;9.148;2023-03-14T04:01:39;8.90;99.90
4828;DHT22;2428;48.732;9.148;2023-03-14T04:04:05;8.80;99.90
4828;DHT22;2428;48.732;9.148;2023-03-14T04:06:31;8.70;99.90
4828;DHT22;2428;48.732;9.148;2023-03-14T04:08:57;8.70;99.90
4828;DHT22;2428;48.732;9.148;2023-03-14T04:11:23;8.70;99.90
4828;DHT22;2428;48.732;9.148;2023-03-14T04:13:48;8.70;99.90
4828;DHT22;2428;48.732;9.148;2023-03-14T04:16:17;8.70;99.90
4828;DHT22;2428;48.732;9.148;2023-03-14T04:18:43;8.70;99.90
4828;DHT22;2428;48.732;9.148;2023-03-14T04:21:09;8.60;99.90
4828;DHT22;2428;48.732;9.148;2023-03-14T04:23:34;8.60;99.90
4828;DHT22;2428;48.732;9.148;2023-03-14T04:26:00;8.60;99.90
4828;DHT22;2428;48.732;9.148;2023-03-14T04:28:25;8.60;99.90
4828;DHT22;2428;48.732;9.148;2023-03-14T04:30:51;8.60;99.90
4828;DHT22;2428;48.732;9.148;2023-03-14T04:33:17;8.60;99.90
4828;DHT22;2428;48.732;9.148;2023-03-14T04:35:43;8.60;99.90
4828;DHT22;2428;48.732;9.148;2023-03-14T04:38:09;8.50;99.90
4828;DHT22;2428;48.732;9.148;2023-03-14T04:40:40;8.50;99.90
4828;DHT22;2428;48.732;9.148;2023-03-14T04:43:07;8.50;99.90
4828;DHT22;2428;48.732;9.148;2023-03-14T04:45:32;8.50;99.90
4828;DHT22;2428;48.732;9.148;2023-03-14T04:47:58;8.50;99.90
4828;DHT22;2428;48.732;9.148;2023-03-14T04:50:23;8.50;99.90
4828;DHT22;2428;48.732;9.148;2023-03-14T04:52:49;8.50;99.90
4828;DHT22;2428;48.732;9.148;2023-03-14T04:55:15;8.50;99.90
4828;DHT22;2428;48.732;9.148;2023-03-14T04:57:40;8.50;99.90
4828;DHT22;2428;48.732;9.148;2023-03-14T05:00:06;8.50;99.90
4828;DHT22;2428;48.732;9.148;2023-03-14T05:02:34;8.40;99.90
4828;DHT22;2428;48.732;9.148;2023-03-14T05:05:00;8.50;99.90
4828;DHT22;2428;48.732;9.148;2023-03-14T05:07:26;8.40;99.90
4828;DHT22;2428;48.732;9.148;2023-03-14T05:09:51;8.40;99.90
4828;DHT22;2428;48.732;9.148;2023-03-14T05:12:19;8.40;99.90
4828;DHT22;2428;48.732;9.148;2023-03-14T05:14:45;8.40;99.90
4828;DHT22;2428;48.732;9.148;2023-03-14T05:17:10;8.50;99.90
4828;DHT22;2428;48.732;9.148;2023-03-14T05:19:36;8.40;99.90
4828;DHT22;2428;48.732;9.148;2023-03-14T05:22:02;8.40;99.90
4828;DHT22;2428;48.732;9.148;2023-03-14T05:24:28;8.40;99.90
4828;DHT22;2428;48.732;9.148;2023-03-14T05:26:54;8.40;99.90
4828;DHT22;2428;48.732;9.148;2023-03-14T05:29:19;8.40;99.90
4828;DHT22;2428;48.732;9.148;2023-03-14T05:31:45;8.50;99.90
4828;DHT22;2428;48.732;9.148;2023-03-14T05:34:10;8.40;99.90
4828;DHT22;2428;48.732;9.148;2023-03-14T05:36:36;8.40;99.90
4828;DHT22;2428;48.732;9.148;2023-03-14T05:39:01;8.40;99.90
4828;DHT22;2428;48.732;9.148;2023-03-14T05:41:27;8.40;99.90
4828;DHT22;2428;48.732;9.148;2023-03-14T05:43:54;8.50;99.90
4828;DHT22;2428;48.732;9.148;2023-03-14T05:46:20;8.50;99.90
4828;DHT22;2428;48.732;9.148;2023-03-14T05:48:45;8.50;99.90
4828;DHT22;2428;48.732;9.148;2023-03-14T05:51:11;8.50;99.90
4828;DHT22;2428;48.732;9.148;2023-03-14T05:53:36;8.50;99.90
4828;DHT22;2428;48.732;9.148;2023-03-14T05:56:02;8.50;99.90
4828;DHT22;2428;48.732;9.148;2023-03-14T05:58:27;8.50;99.90
4828;DHT22;2428;48.732;9.148;2023-03-14T06:00:53;8.50;99.90
4828;DHT22;2428;48.732;9.148;2023-03-14T06:03:18;8.50;99.90
4828;DHT22;2428;48.732;9.148;2023-03-14T06:05:44;8.50;99.90
4828;DHT22;2428;48.732;9.148;2023-03-14T06:08:09;8.50;99.90
4828;DHT22;2428;48.732;9.148;2023-03-14T06:10:36;8.50;99.90
4828;DHT22;2428;48.732;9.148;2023-03-14T06:13:03;8.50;99.90
4828;DHT22;2428;48.732;9.148;2023-03-14T06:15:28;8.50;99.90
4828;DHT22;2428;48.732;9.148;2023-03-14T06:17:57;8.50;99.90
4828;DHT22;2428;48.732;9.148;2023-03-14T06:20:23;8.50;99.90
4828;DHT22;2428;48.732;9.148;2023-03-14T06:22:48;8.50;99.90
4828;DHT22;2428;48.732;9.148;2023-03-14T06:25:14;8.50;99.90
4828;DHT22;2428;48.732;9.148;2023-03-14T06:27:39;8.50;99.90
4828;DHT22;2428;48.732;9.148;2023-03-14T06:30:05;8.50;99.90
4828;DHT22;2428;48.732;9.148;2023-03-14T06:32:31;8.50;99.90
4828;DHT22;2428;48.732;9.148;2023-03-14T06:34:57;8.60;99.90
4828;DHT22;2428;48.732;9.148;2023-03-14T06:37:29;8.60;99.90
4828;DHT22;2428;48.732;9.148;2023-03-14T06:39:55;8.70;99.90
4828;DHT22;2428;48.732;9.148;2023-03-14T06:42:22;8.70;99.90
4828;DHT22;2428;48.732;9.148;2023-03-14T06:44:47;8.70;99.90
4828;DHT22;2428;48.732;9.148;2023-03-14T06:47:13;8.80;99.90
4828;DHT22;2428;48.732;9.148;2023-03-14T06:49:39;8.80;99.90
4828;DHT22;2428;48.732;9.148;2023-03-14T06:52:04;8.80;99.90
4828;DHT22;2428;48.732;9.148;2023-03-14T06:54:30;8.80;99.90
4828;DHT22;2428;48.732;9.148;2023-03-14T06:56:55;8.90;99.90
4828;DHT22;2428;48.732;9.148;2023-03-14T06:59:21;8.90;99.90
4828;DHT22;2428;48.732;9.148;2023-03-14T07:01:47;9.00;99.90
4828;DHT22;2428;48.732;9.148;2023-03-14T07:04:13;9.10;99.90
4828;DHT22;2428;48.732;9.148;2023-03-14T07:06:39;9.10;99.90
4828;DHT22;2428;48.732;9.148;2023-03-14T07:09:05;9.20;99.90
4828;DHT22;2428;48.732;9.148;2023-03-14T07:11:30;9.20;99.90
4828;DHT22;2428;48.732;9.148;2023-03-14T07:13:56;9.20;99.90
4828;DHT22;2428;48.732;9.148;2023-03-14T07:16:22;9.20;99.90
4828;DHT22;2428;48.732;9.148;2023-03-14T07:18:47;9.30;99.90
4828;DHT22;2428;48.732;9.148;2023-03-14T07:21:14;9.40;99.90
4828;DHT22;2428;48.732;9.148;2023-03-14T07:23:41;9.40;99.90
4828;DHT22;2428;48.732;9.148;2023-03-14T07:26:07;9.40;99.90
4828;DHT22;2428;48.732;9.148;2023-03-14T07:28:32;9.40;99.90
4828;DHT22;2428;48.732;9.148;2023-03-14T07:30:58;9.40;99.90
4828;DHT22;2428;48.732;9.148;2023-03-14T07:33:24;9.50;99.90
4828;DHT22;2428;48.732;9.148;2023-03-14T07:35:50;9.60;99.90
4828;DHT22;2428;48.732;9.148;2023-03-14T07:38:16;9.60;99.90
4828;DHT22;2428;48.732;9.148;2023-03-14T07:40:42;9.70;99.90
4828;DHT22;2428;48.732;9.148;2023-03-14T07:43:08;9.70;99.90
4828;DHT22;2428;48.732;9.148;2023-03-14T07:45:33;9.70;99.90
4828;DHT22;2428;48.732;9.148;2023-03-14T07:47:59;9.80;99.90
4828;DHT22;2428;48.732;9.148;2023-03-14T07:50:25;9.80;99.90
4828;DHT22;2428;48.732;9.148;2023-03-14T07:52:51;9.80;99.90
4828;DHT22;2428;48.732;9.148;2023-03-14T07:55:16;9.90;99.90
4828;DHT22;2428;48.732;9.148;2023-03-14T07:57:42;9.90;99.90
4828;DHT22;2428;48.732;9.148;2023-03-14T08:00:08;9.90;99.90
4828;DHT22;2428;48.732;9.148;2023-03-14T08:02:35;9.90;99.90
4828;DHT22;2428;48.732;9.148;2023-03-14T08:05:02;9.90;99.90
4828;DHT22;2428;48.732;9.148;2023-03-14T08:07:28;9.90;99.90
4828;DHT22;2428;48.732;9.148;2023-03-14T08:09:53;10.00;99.90
4828;DHT22;2428;48.732;9.148;2023-03-14T08:12:19;10.10;99.90
4828;DHT22;2428;48.732;9.148;2023-03-14T08:14:44;10.20;99.90
4828;DHT22;2428;48.732;9.148;2023-03-14T08:17:10;10.20;99.90
4828;DHT22;2428;48.732;9.148;2023-03-14T08:19:35;10.30;99.90
4828;DHT22;2428;48.732;9.148;2023-03-14T08:22:01;10.40;99.90
4828;DHT22;2428;48.732;9.148;2023-03-14T08:24:27;10.50;99.90
4828;DHT22;2428;48.732;9.148;2023-03-14T08:26:53;10.60;99.90
4828;DHT22;2428;48.732;9.148;2023-03-14T08:29:18;10.60;99.90
4828;DHT22;2428;48.732;9.148;2023-03-14T08:31:44;10.70;99.90
4828;DHT22;2428;48.732;9.148;2023-03-14T08:34:10;10.90;99.90
4828;DHT22;2428;48.732;9.148;2023-03-14T08:36:35;11.10;99.90
4828;DHT22;2428;48.732;9.148;2023-03-14T08:39:01;11.30;99.90
4828;DHT22;2428;48.732;9.148;2023-03-14T08:41:29;11.40;99.90
4828;DHT22;2428;48.732;9.148;2023-03-14T08:43:54;11.40;99.90
4828;DHT22;2428;48.732;9.148;2023-03-14T08:46:20;11.50;99.90
4828;DHT22;2428;48.732;9.148;2023-03-14T08:48:46;11.40;99.90
4828;DHT22;2428;48.732;9.148;2023-03-14T08:51:13;11.40;99.90
4828;DHT22;2428;48.732;9.148;2023-03-14T08:53:42;11.40;99.90
4828;DHT22;2428;48.732;9.148;2023-03-14T08:56:08;11.30;99.90
4828;DHT22;2428;48.732;9.148;2023-03-14T08:58:35;11.20;99.90
4828;DHT22;2428;48.732;9.148;2023-03-14T09:01:04;11.30;99.90
4828;DHT22;2428;48.732;9.148;2023-03-14T09:03:30;11.20;99.90
4828;DHT22;2428;48.732;9.148;2023-03-14T09:05:55;11.20;99.90
4828;DHT22;2428;48.732;9.148;2023-03-14T09:08:21;11.10;99.90
4828;DHT22;2428;48.732;9.148;2023-03-14T09:10:47;10.90;99.90
4828;DHT22;2428;48.732;9.148;2023-03-14T09:13:12;10.70;99.90
4828;DHT22;2428;48.732;9.148;2023-03-14T09:15:38;10.70;99.90
4828;DHT22;2428;48.732;9.148;2023-03-14T09:18:04;10.70;99.90
4828;DHT22;2428;48.732;9.148;2023-03-14T09:20:29;10.60;99.90
4828;DHT22;2428;48.732;9.148;2023-03-14T09:22:55;10.60;99.90
4828;DHT22;2428;48.732;9.148;2023-03-14T09:25:21;10.50;99.90
4828;DHT22;2428;48.732;9.148;2023-03-14T09:27:46;10.60;99.90
4828;DHT22;2428;48.732;9.148;2023-03-14T09:30:12;10.70;99.90
4828;DHT22;2428;48.732;9.148;2023-03-14T09:32:38;10.80;99.90
4828;DHT22;2428;48.732;9.148;2023-03-14T09:35:04;10.90;99.90
4828;DHT22;2428;48.732;9.148;2023-03-14T09:37:29;11.00;99.90
4828;DHT22;2428;48.732;9.148;2023-03-14T09:39:55;11.00;99.90
4828;DHT22;2428;48.732;9.148;2023-03-14T09:42:26;10.80;99.90
4828;DHT22;2428;48.732;9.148;2023-03-14T09:45:06;10.80;99.90
4828;DHT22;2428;48.732;9.148;2023-03-14T09:47:33;10.90;99.90
4828;DHT22;2428;48.732;9.148;2023-03-14T09:50:00;10.80;99.90
4828;DHT22;2428;48.732;9.148;2023-03-14T09:52:36;10.80;99.90
4828;DHT22;2428;48.732;9.148;2023-03-14T09:55:03;10.80;99.90
4828;DHT22;2428;48.732;9.148;2023-03-14T09:57:29;10.80;99.90
4828;DHT22;2428;48.732;9.148;2023-03-14T10:00:02;10.80;99.90
4828;DHT22;2428;48.732;9.148;2023-03-14T10:02:37;10.70;99.90
4828;DHT22;2428;48.732;9.148;2023-03-14T10:05:14;10.80;99.90
4828;DHT22;2428;48.732;9.148;2023-03-14T10:07:40;10.80;99.90
4828;DHT22;2428;48.732;9.148;2023-03-14T10:10:25;11.00;99.90
4828;DHT22;2428;48.732;9.148;2023-03-14T10:13:05;11.70;99.90
4828;DHT22;2428;48.732;9.148;2023-03-14T10:15:34;11.90;99.90
4828;DHT22;2428;48.732;9.148;2023-03-14T10:18:02;11.70;99.90
4828;DHT22;2428;48.732;9.148;2023-03-14T10:23:05;12.90;99.90
4828;DHT22;2428;48.732;9.148;2023-03-14T10:25:36;13.10;99.90
4828;DHT22;2428;48.732;9.148;2023-03-14T10:28:04;13.00;99.90
4828;DHT22;2428;48.732;9.148;2023-03-14T10:33:33;12.40;99.90
4828;DHT22;2428;48.732;9.148;2023-03-14T10:38:44;11.80;99.90
4828;DHT22;2428;48.732;9.148;2023-03-14T10:41:19;11.80;99.90
4828;DHT22;2428;48.732;9.148;2023-03-14T10:43:57;11.90;99.90
4828;DHT22;2428;48.732;9.148;2023-03-14T10:46:25;12.00;99.90
4828;DHT22;2428;48.732;9.148;2023-03-14T10:48:52;12.00;99.90
4828;DHT22;2428;48.732;9.148;2023-03-14T10:51:26;12.00;99.90
4828;DHT22;2428;48.732;9.148;2023-03-14T10:53:58;11.80;99.90
4828;DHT22;2428;48.732;9.148;2023-03-14T10:56:25;11.50;99.90
4828;DHT22;2428;48.732;9.148;2023-03-14T10:58:57;11.40;99.90
4828;DHT22;2428;48.732;9.148;2023-03-14T11:01:45;11.20;99.90
4828;DHT22;2428;48.732;9.148;2023-03-14T11:06:48;10.90;99.90
4828;DHT22;2428;48.732;9.148;2023-03-14T11:09:23;11.00;99.90
4828;DHT22;2428;48.732;9.148;2023-03-14T11:11:50;11.00;99.90
4828;DHT22;2428;48.732;9.148;2023-03-14T11:14:43;11.00;99.90
4828;DHT22;2428;48.732;9.148;2023-03-14T11:22:16;11.00;99.90
4828;DHT22;2428;48.732;9.148;2023-03-14T11:30:27;10.70;99.90
4828;DHT22;2428;48.732;9.148;2023-03-14T11:36:06;10.50;99.90
4828;DHT22;2428;48.732;9.148;2023-03-14T11:38:50;10.50;99.90
4828;DHT22;2428;48.732;9.148;2023-03-14T11:41:27;10.40;99.90
4828;DHT22;2428;48.732;9.148;2023-03-14T11:43:56;10.40;99.90
4828;DHT22;2428;48.732;9.148;2023-03-14T11:52:23;10.20;99.90
4828;DHT22;2428;48.732;9.148;2023-03-14T11:57:34;10.20;99.90
4828;DHT22;2428;48.732;9.148;2023-03-14T12:10:44;10.30;99.90
4828;DHT22;2428;48.732;9.148;2023-03-14T12:13:13;10.30;99.90
4828;DHT22;2428;48.732;9.148;2023-03-14T12:15:41;10.20;99.90
4828;DHT22;2428;48.732;9.148;2023-03-14T12:18:29;10.10;99.90
4828;DHT22;2428;48.732;9.148;2023-03-14T12:21:04;10.00;99.90
4828;DHT22;2428;48.732;9.148;2023-03-14T12:28:42;10.00;99.90
4828;DHT22;2428;48.732;9.148;2023-03-14T12:34:02;10.20;99.90
4828;DHT22;2428;48.732;9.148;2023-03-14T12:37:09;10.10;99.90
4828;DHT22;2428;48.732;9.148;2023-03-14T12:44:41;10.00;99.90
4828;DHT22;2428;48.732;9.148;2023-03-14T12:49:53;10.10;99.90
4828;DHT22;2428;48.732;9.148;2023-03-14T12:52:36;10.20;99.90
4828;DHT22;2428;48.732;9.148;2023-03-14T12:55:21;10.30;99.90
4828;DHT22;2428;48.732;9.148;2023-03-14T12:58:00;10.20;99.90
4828;DHT22;2428;48.732;9.148;2023-03-14T13:00:34;10.00;99.90
4828;DHT22;2428;48.732;9.148;2023-03-14T13:05:55;9.80;99.90
4828;DHT22;2428;48.732;9.148;2023-03-14T13:08:42;9.60;99.90
4828;DHT22;2428;48.732;9.148;2023-03-14T13:11:12;9.30;99.90
4828;DHT22;2428;48.732;9.148;2023-03-14T13:13:44;9.20;99.90
4828;DHT22;2428;48.732;9.148;2023-03-14T13:16:17;9.20;99.90
4828;DHT22;2428;48.732;9.148;2023-03-14T13:18:45;9.20;99.90
4828;DHT22;2428;48.732;9.148;2023-03-14T13:21:17;9.30;99.90
4828;DHT22;2428;48.732;9.148;2023-03-14T13:26:32;9.50;99.90
4828;DHT22;2428;48.732;9.148;2023-03-14T13:28:59;9.40;99.90
4828;DHT22;2428;48.732;9.148;2023-03-14T13:31:25;9.40;99.90
4828;DHT22;2428;48.732;9.148;2023-03-14T13:34:02;9.20;99.90
4828;DHT22;2428;48.732;9.148;2023-03-14T13:36:30;9.00;99.90
4828;DHT22;2428;48.732;9.148;2023-03-14T13:39:00;8.90;99.90
4828;DHT22;2428;48.732;9.148;2023-03-14T13:41:27;9.00;99.90
4828;DHT22;2428;48.732;9.148;2023-03-14T13:44:01;9.00;99.90
4828;DHT22;2428;48.732;9.148;2023-03-14T13:46:27;8.90;99.90
4828;DHT22;2428;48.732;9.148;2023-03-14T13:48:57;8.80;99.90
4828;DHT22;2428;48.732;9.148;2023-03-14T13:51:23;8.70;99.90
4828;DHT22;2428;48.732;9.148;2023-03-14T13:53:52;8.60;99.90
4828;DHT22;2428;48.732;9.148;2023-03-14T13:56:20;8.50;99.90
4828;DHT22;2428;48.732;9.148;2023-03-14T13:58:46;8.60;99.90
4828;DHT22;2428;48.732;9.148;2023-03-14T14:01:14;8.60;99.90
4828;DHT22;2428;48.732;9.148;2023-03-14T14:03:42;8.60;99.90
4828;DHT22;2428;48.732;9.148;2023-03-14T14:09:16;8.50;99.90
4828;DHT22;2428;48.732;9.148;2023-03-14T14:11:47;8.50;99.90
4828;DHT22;2428;48.732;9.148;2023-03-14T14:16:52;8.30;99.90
4828;DHT22;2428;48.732;9.148;2023-03-14T14:19:19;8.30;99.90
4828;DHT22;2428;48.732;9.148;2023-03-14T14:21:47;8.30;99.90
4828;DHT22;2428;48.732;9.148;2023-03-14T14:24:14;8.20;99.90
4828;DHT22;2428;48.732;9.148;2023-03-14T14:26:54;8.30;99.90
4828;DHT22;2428;48.732;9.148;2023-03-14T14:29:29;8.20;99.90
4828;DHT22;2428;48.732;9.148;2023-03-14T14:34:55;8.30;99.90
4828;DHT22;2428;48.732;9.148;2023-03-14T14:39:53;8.20;99.90
4828;DHT22;2428;48.732;9.148;2023-03-14T14:42:21;8.10;99.90
4828;DHT22;2428;48.732;9.148;2023-03-14T14:44:50;8.10;99.90
4828;DHT22;2428;48.732;9.148;2023-03-14T14:47:21;8.00;99.90
4828;DHT22;2428;48.732;9.148;2023-03-14T14:49:48;8.10;99.90
4828;DHT22;2428;48.732;9.148;2023-03-14T14:52:31;8.10;99.90
4828;DHT22;2428;48.732;9.148;2023-03-14T14:54:59;8.00;99.90
4828;DHT22;2428;48.732;9.148;2023-03-14T14:57:33;8.00;99.90
4828;DHT22;2428;48.732;9.148;2023-03-14T15:00:07;8.10;99.90
4828;DHT22;2428;48.732;9.148;2023-03-14T15:02:39;8.10;99.90
4828;DHT22;2428;48.732;9.148;2023-03-14T15:05:20;8.10;99.90
4828;DHT22;2428;48.732;9.148;2023-03-14T15:07:47;8.20;99.90
4828;DHT22;2428;48.732;9.148;2023-03-14T15:10:18;8.20;99.90
4828;DHT22;2428;48.732;9.148;2023-03-14T15:12:44;8.40;99.90
4828;DHT22;2428;48.732;9.148;2023-03-14T15:15:11;8.40;99.90
4828;DHT22;2428;48.732;9.148;2023-03-14T15:17:38;8.50;99.90
4828;DHT22;2428;48.732;9.148;2023-03-14T15:20:06;8.50;99.90
4828;DHT22;2428;48.732;9.148;2023-03-14T15:22:32;8.60;99.90
4828;DHT22;2428;48.732;9.148;2023-03-14T15:24:57;8.70;99.90
4828;DHT22;2428;48.732;9.148;2023-03-14T15:27:23;8.70;99.90
4828;DHT22;2428;48.732;9.148;2023-03-14T15:29:49;8.70;99.90
4828;DHT22;2428;48.732;9.148;2023-03-14T15:32:16;8.70;99.90
4828;DHT22;2428;48.732;9.148;2023-03-14T15:34:43;8.50;99.90
4828;DHT22;2428;48.732;9.148;2023-03-14T15:37:13;8.50;99.90
4828;DHT22;2428;48.732;9.148;2023-03-14T15:39:42;8.50;99.90
4828;DHT22;2428;48.732;9.148;2023-03-14T15:42:08;8.50;99.90
4828;DHT22;2428;48.732;9.148;2023-03-14T15:44:34;8.50;99.90
4828;DHT22;2428;48.732;9.148;2023-03-14T15:47:00;8.60;99.90
4828;DHT22;2428;48.732;9.148;2023-03-14T15:49:27;8.50;99.90
4828;DHT22;2428;48.732;9.148;2023-03-14T15:51:52;8.40;99.90
4828;DHT22;2428;48.732;9.148;2023-03-14T15:54:18;8.40;99.90
4828;DHT22;2428;48.732;9.148;2023-03-14T15:56:43;8.50;99.90
4828;DHT22;2428;48.732;9.148;2023-03-14T15:59:09;8.50;99.90
4828;DHT22;2428;48.732;9.148;2023-03-14T16:01:34;8.40;99.90
4828;DHT22;2428;48.732;9.148;2023-03-14T16:04:00;8.30;99.90
4828;DHT22;2428;48.732;9.148;2023-03-14T16:06:27;8.20;99.90
4828;DHT22;2428;48.732;9.148;2023-03-14T16:08:53;8.10;99.90
4828;DHT22;2428;48.732;9.148;2023-03-14T16:11:19;8.00;99.90
4828;DHT22;2428;48.732;9.148;2023-03-14T16:13:45;8.00;99.90
4828;DHT22;2428;48.732;9.148;2023-03-14T16:16:11;8.00;99.90
4828;DHT22;2428;48.732;9.148;2023-03-14T16:18:38;8.10;99.90
4828;DHT22;2428;48.732;9.148;2023-03-14T16:21:11;8.10;99.90
4828;DHT22;2428;48.732;9.148;2023-03-14T16:23:37;8.10;99.90
4828;DHT22;2428;48.732;9.148;2023-03-14T16:26:05;8.20;99.90
4828;DHT22;2428;48.732;9.148;2023-03-14T16:28:31;8.10;99.90
4828;DHT22;2428;48.732;9.148;2023-03-14T16:31:05;8.10;99.90
4828;DHT22;2428;48.732;9.148;2023-03-14T16:33:32;8.10;99.90
4828;DHT22;2428;48.732;9.148;2023-03-14T16:35:59;8.00;99.90
4828;DHT22;2428;48.732;9.148;2023-03-14T16:38:26;8.10;99.90
4828;DHT22;2428;48.732;9.148;2023-03-14T16:41:16;7.90;99.90
4828;DHT22;2428;48.732;9.148;2023-03-14T16:43:42;7.90;99.90
4828;DHT22;2428;48.732;9.148;2023-03-14T16:46:12;7.90;99.90
4828;DHT22;2428;48.732;9.148;2023-03-14T16:48:38;7.90;99.90
4828;DHT22;2428;48.732;9.148;2023-03-14T16:51:04;7.90;99.90
4828;DHT22;2428;48.732;9.148;2023-03-14T16:53:30;7.90;99.90
4828;DHT22;2428;48.732;9.148;2023-03-14T16:55:56;7.90;99.90
4828;DHT22;2428;48.732;9.148;2023-03-14T16:58:22;7.90;99.90
4828;DHT22;2428;48.732;9.148;2023-03-14T17:00:48;7.90;99.90
4828;DHT22;2428;48.732;9.148;2023-03-14T17:03:15;7.90;99.90
4828;DHT22;2428;48.732;9.148;2023-03-14T17:05:45;7.90;99.90
4828;DHT22;2428;48.732;9.148;2023-03-14T17:08:11;8.00;99.90
4828;DHT22;2428;48.732;9.148;2023-03-14T17:10:37;7.90;99.90
4828;DHT22;2428;48.732;9.148;2023-03-14T17:13:02;7.90;99.90
4828;DHT22;2428;48.732;9.148;2023-03-14T17:15:28;7.90;99.90
4828;DHT22;2428;48.732;9.148;2023-03-14T17:17:53;7.90;99.90
4828;DHT22;2428;48.732;9.148;2023-03-14T17:20:19;7.80;99.90
4828;DHT22;2428;48.732;9.148;2023-03-14T17:22:45;7.80;99.90
4828;DHT22;2428;48.732;9.148;2023-03-14T17:25:10;7.70;99.90
4828;DHT22;2428;48.732;9.148;2023-03-14T17:27:36;7.60;99.90
4828;DHT22;2428;48.732;9.148;2023-03-14T17:30:03;7.50;99.90
4828;DHT22;2428;48.732;9.148;2023-03-14T17:32:28;7.40;99.90
4828;DHT22;2428;48.732;9.148;2023-03-14T17:34:54;7.30;99.90
4828;DHT22;2428;48.732;9.148;2023-03-14T17:37:20;7.20;99.90
4828;DHT22;2428;48.732;9.148;2023-03-14T17:39:45;7.10;99.90
4828;DHT22;2428;48.732;9.148;2023-03-14T17:42:11;7.10;99.90
4828;DHT22;2428;48.732;9.148;2023-03-14T17:44:37;7.00;99.90
4828;DHT22;2428;48.732;9.148;2023-03-14T17:47:03;7.00;99.90